createdAt,value
2019-05-14T00:01:11.871Z,93.60
2019-05-14T00:03:41.330Z,93.40
2019-05-14T00:06:11.533Z,93.40
2019-05-14T00:08:41.893Z,93.40
2019-05-14T00:11:12.801Z,93.20
2019-05-14T00:13:41.278Z,93.30
2019-05-14T00:16:11.797Z,94.00
2019-05-14T00:18:41.992Z,94.40
2019-05-14T00:21:12.107Z,94.30
2019-05-14T00:23:42.096Z,94.20
2019-05-14T00:26:12.143Z,94.10
2019-05-14T00:28:42.287Z,94.10
2019-05-14T00:31:12.138Z,93.50
2019-05-14T00:33:41.918Z,92.90
2019-05-14T00:36:11.258Z,93.00
2019-05-14T00:38:41.887Z,92.90
2019-05-14T00:41:11.093Z,93.10
2019-05-14T00:43:41.620Z,93.10
2019-05-14T00:46:11.853Z,93.10
2019-05-14T00:48:42.044Z,93.00
2019-05-14T00:51:11.093Z,93.10
2019-05-14T00:53:41.951Z,93.10
2019-05-14T00:56:11.040Z,93.10
2019-05-14T00:58:41.479Z,93.30
2019-05-14T01:01:11.882Z,93.60
2019-05-14T01:03:41.490Z,93.70
2019-05-14T01:06:11.351Z,93.60
2019-05-14T01:08:41.397Z,93.90
2019-05-14T01:11:11.829Z,94.20
2019-05-14T01:13:41.678Z,94.50
2019-05-14T01:16:12.079Z,95.00
2019-05-14T01:18:41.490Z,95.30
2019-05-14T01:21:11.662Z,95.40
2019-05-14T01:23:41.534Z,95.40
2019-05-14T01:26:11.475Z,95.00
2019-05-14T01:28:41.503Z,93.80
2019-05-14T01:31:11.397Z,93.40
2019-05-14T01:33:41.035Z,94.10
2019-05-14T01:36:09.663Z,94.10
2019-05-14T01:38:38.094Z,93.90
2019-05-14T01:41:06.528Z,93.70
2019-05-14T01:43:34.953Z,93.70
2019-05-14T01:46:03.394Z,93.80
2019-05-14T01:48:31.811Z,94.40
2019-05-14T01:51:01.576Z,93.90
2019-05-14T01:53:31.240Z,94.00
2019-05-14T01:56:01.675Z,94.00
2019-05-14T01:58:31.107Z,94.40
2019-05-14T02:01:01.968Z,94.60
2019-05-14T02:03:32.080Z,94.70
2019-05-14T02:06:01.398Z,94.60
2019-05-14T02:08:32.194Z,94.80
2019-05-14T02:11:01.697Z,95.00
2019-05-14T02:13:32.268Z,95.10
2019-05-14T02:16:01.313Z,95.40
2019-05-14T02:18:31.123Z,95.70
2019-05-14T02:21:01.535Z,95.70
2019-05-14T02:23:32.017Z,95.90
2019-05-14T02:26:02.274Z,95.90
2019-05-14T02:28:31.515Z,96.10
2019-05-14T02:31:03.461Z,96.00
2019-05-14T02:33:30.726Z,96.30
2019-05-14T02:36:00.195Z,96.40
2019-05-14T02:38:29.882Z,96.40
2019-05-14T02:40:59.922Z,96.40
2019-05-14T02:43:29.453Z,96.40
2019-05-14T02:46:10.612Z,96.30
2019-05-14T02:48:29.440Z,96.60
2019-05-14T02:50:59.792Z,96.70
2019-05-14T02:53:29.630Z,96.80
2019-05-14T02:55:59.592Z,96.90
2019-05-14T02:58:29.866Z,97.10
2019-05-14T03:01:00.383Z,97.30
2019-05-14T03:03:29.934Z,97.40
2019-05-14T03:06:00.268Z,97.60
2019-05-14T03:08:30.365Z,97.50
2019-05-14T03:11:00.320Z,97.40
2019-05-14T03:13:29.700Z,97.50
2019-05-14T03:15:59.464Z,97.90
2019-05-14T03:18:29.660Z,97.70
2019-05-14T03:21:00.869Z,97.80
2019-05-14T03:23:30.107Z,97.80
2019-05-14T03:26:00.549Z,97.90
2019-05-14T03:28:30.329Z,98.00
2019-05-14T03:31:03.277Z,97.80
2019-05-14T03:33:33.206Z,97.90
2019-05-14T03:36:08.332Z,97.90
2019-05-14T03:38:29.843Z,98.00
2019-05-14T03:41:00.276Z,98.00
2019-05-14T03:43:29.762Z,98.00
2019-05-14T03:45:59.487Z,98.10
2019-05-14T03:48:29.600Z,98.10
2019-05-14T03:51:00.086Z,98.10
2019-05-14T03:53:29.583Z,98.20
2019-05-14T03:55:59.871Z,98.40
2019-05-14T03:58:29.981Z,98.50
2019-05-14T04:01:01.217Z,98.40
2019-05-14T04:03:31.562Z,98.40
2019-05-14T04:06:01.576Z,98.70
2019-05-14T04:08:31.920Z,99.10
2019-05-14T04:11:01.239Z,98.80
2019-05-14T04:13:33.089Z,98.60
2019-05-14T04:24:14.604Z,98.30
2019-05-14T04:26:58.276Z,98.30
2019-05-14T04:29:19.711Z,98.40
2019-05-14T04:31:50.130Z,98.70
2019-05-14T04:34:19.511Z,98.40
2019-05-14T04:37:09.806Z,98.40
2019-05-14T04:39:39.518Z,98.60
2019-05-14T04:42:09.596Z,98.40
2019-05-14T04:44:40.432Z,98.30
2019-05-14T04:47:25.340Z,98.30
2019-05-14T04:49:39.878Z,98.20
2019-05-14T04:52:10.002Z,97.90
2019-05-14T04:54:39.596Z,98.10
2019-05-14T04:57:10.173Z,98.30
2019-05-14T04:59:39.845Z,98.10
2019-05-14T05:02:09.530Z,97.90
2019-05-14T05:04:41.131Z,98.20
2019-05-14T05:07:09.944Z,98.10
2019-05-14T05:09:39.793Z,97.90
2019-05-14T05:12:09.255Z,98.00
2019-05-14T05:14:38.884Z,97.90
2019-05-14T05:17:09.234Z,97.80
2019-05-14T05:19:39.836Z,97.70
2019-05-14T05:22:08.366Z,97.80
2019-05-14T05:24:38.089Z,98.20
2019-05-14T05:27:09.107Z,98.10
2019-05-14T05:29:39.062Z,98.40
2019-05-14T05:32:08.630Z,97.90
2019-05-14T05:34:38.858Z,97.70
2019-05-14T05:37:08.596Z,97.70
2019-05-14T05:39:38.654Z,97.80
2019-05-14T05:42:09.296Z,97.80
2019-05-14T05:44:39.436Z,97.70
2019-05-14T05:47:09.171Z,97.40
2019-05-14T05:49:38.386Z,97.50
2019-05-14T05:52:08.609Z,97.20
2019-05-14T05:54:38.418Z,97.20
2019-05-14T05:57:09.292Z,97.00
2019-05-14T05:59:39.368Z,97.30
2019-05-14T06:02:09.435Z,97.40
2019-05-14T06:04:39.390Z,97.20
2019-05-14T06:07:08.830Z,97.00
2019-05-14T06:09:38.203Z,97.00
2019-05-14T06:12:08.696Z,96.90
2019-05-14T06:14:38.195Z,96.90
2019-05-14T06:17:08.566Z,96.70
2019-05-14T06:19:38.240Z,96.60
2019-05-14T06:22:09.585Z,96.40
2019-05-14T06:24:39.010Z,96.00
2019-05-14T06:27:09.486Z,96.10
2019-05-14T06:29:38.305Z,96.00
2019-05-14T06:32:09.097Z,95.30
2019-05-14T06:34:38.281Z,95.20
2019-05-14T06:37:08.461Z,95.10
2019-05-14T06:39:39.148Z,95.20
2019-05-14T06:42:08.792Z,95.00
2019-05-14T06:44:38.551Z,95.00
2019-05-14T06:47:09.312Z,94.60
2019-05-14T06:49:38.561Z,94.50
2019-05-14T06:52:08.685Z,94.20
2019-05-14T06:54:38.736Z,94.20
2019-05-14T06:57:08.934Z,94.00
2019-05-14T06:59:38.167Z,93.90
2019-05-14T07:02:08.748Z,93.70
2019-05-14T07:04:39.248Z,93.40
2019-05-14T07:07:08.426Z,93.50
2019-05-14T07:09:38.448Z,94.10
2019-05-14T07:12:09.062Z,93.70
2019-05-14T07:14:38.911Z,93.00
2019-05-14T07:17:09.117Z,93.50
2019-05-14T07:19:38.461Z,92.90
2019-05-14T07:22:08.906Z,92.20
2019-05-14T07:24:40.480Z,91.90
2019-05-14T07:27:09.428Z,92.10
2019-05-14T07:29:38.794Z,91.50
2019-05-14T07:32:09.036Z,91.20
2019-05-14T07:34:38.900Z,91.50
2019-05-14T07:37:09.429Z,91.80
2019-05-14T07:39:38.526Z,90.70
2019-05-14T07:42:09.793Z,90.00
2019-05-14T07:44:39.100Z,90.30
2019-05-14T07:47:08.329Z,90.30
2019-05-14T07:49:38.532Z,90.40
2019-05-14T07:52:09.390Z,89.50
2019-05-14T07:54:38.986Z,88.80
2019-05-14T07:57:08.772Z,89.70
2019-05-14T07:59:38.102Z,90.00
2019-05-14T08:02:09.150Z,90.00
2019-05-14T08:04:38.145Z,90.00
2019-05-14T08:07:08.997Z,90.40
2019-05-14T08:09:38.925Z,90.30
2019-05-14T08:12:09.332Z,90.10
2019-05-14T08:14:45.354Z,90.10
2019-05-14T08:17:08.606Z,90.00
2019-05-14T08:19:38.632Z,90.40
2019-05-14T08:22:09.412Z,90.00
2019-05-14T08:24:38.609Z,89.50
2019-05-14T08:27:08.543Z,89.10
2019-05-14T08:29:41.290Z,89.60
2019-05-14T08:32:08.810Z,90.50
2019-05-14T08:34:39.013Z,91.00
2019-05-14T08:37:27.982Z,91.40
2019-05-14T08:39:58.819Z,91.60
2019-05-14T08:42:29.129Z,92.00
2019-05-14T08:44:59.240Z,92.30
2019-05-14T08:47:29.207Z,92.40
2019-05-14T08:49:59.903Z,92.00
2019-05-14T08:52:28.839Z,91.30
2019-05-14T08:55:07.093Z,91.00
2019-05-14T08:57:29.187Z,91.00
2019-05-14T08:59:59.358Z,90.70
2019-05-14T09:02:28.644Z,90.60
2019-05-14T09:05:03.348Z,90.50
2019-05-14T09:07:28.953Z,90.20
2019-05-14T09:10:00.078Z,90.20
2019-05-14T09:12:28.156Z,90.10
2019-05-14T09:14:58.795Z,89.30
2019-05-14T09:17:28.897Z,86.80
2019-05-14T09:20:05.739Z,84.80
2019-05-14T09:22:29.009Z,85.70
2019-05-14T09:25:00.083Z,85.60
2019-05-14T09:27:29.243Z,85.60
2019-05-14T09:29:58.951Z,85.10
2019-05-14T09:32:29.161Z,96.10
2019-05-14T09:34:58.977Z,88.60
2019-05-14T09:37:28.855Z,82.40
2019-05-14T09:39:58.406Z,80.90
2019-05-14T09:42:28.645Z,80.80
2019-05-14T09:44:59.522Z,79.70
2019-05-14T09:47:28.333Z,81.00
2019-05-14T09:49:59.697Z,82.00
2019-05-14T09:52:29.325Z,81.30
2019-05-14T09:55:18.168Z,80.80
2019-05-14T09:57:48.983Z,79.90
2019-05-14T10:00:18.595Z,81.30
2019-05-14T10:02:49.341Z,80.20
2019-05-14T10:05:19.414Z,79.60
2019-05-14T10:07:49.438Z,79.40
2019-05-14T10:10:39.900Z,78.00
2019-05-14T10:13:09.806Z,77.40
2019-05-14T10:15:39.085Z,77.10
2019-05-14T10:18:11.774Z,75.30
2019-05-14T10:20:45.350Z,74.60
2019-05-14T10:23:09.246Z,74.50
2019-05-14T10:25:40.239Z,73.80
2019-05-14T10:28:08.676Z,73.60
2019-05-14T10:30:37.292Z,73.90
2019-05-14T10:33:13.859Z,74.00
2019-05-14T10:35:35.900Z,74.70
2019-05-14T10:38:04.332Z,74.70
2019-05-14T10:40:32.766Z,78.00
2019-05-14T10:43:01.211Z,80.00
2019-05-14T10:45:29.630Z,81.80
2019-05-14T10:47:58.588Z,83.80
2019-05-14T10:50:28.982Z,83.60
2019-05-14T10:52:59.464Z,84.60
2019-05-14T10:55:28.037Z,84.60
2019-05-14T10:57:58.527Z,83.10
2019-05-14T11:00:28.426Z,81.70
2019-05-14T11:02:56.992Z,80.90
2019-05-14T11:05:28.002Z,79.60
2019-05-14T11:07:55.592Z,77.80
2019-05-14T11:10:24.033Z,75.30
2019-05-14T11:12:55.118Z,76.00
2019-05-14T11:15:22.683Z,75.70
2019-05-14T11:17:51.114Z,77.40
2019-05-14T11:20:19.794Z,79.80
2019-05-14T11:22:49.138Z,83.20
2019-05-14T11:25:19.600Z,86.60
2019-05-14T11:27:49.378Z,90.00
2019-05-14T11:30:19.504Z,90.90
2019-05-14T11:32:49.269Z,92.40
2019-05-14T11:35:19.145Z,93.00
2019-05-14T11:37:48.111Z,93.50
2019-05-14T11:40:18.986Z,93.40
2019-05-14T11:42:49.280Z,92.30
2019-05-14T11:45:39.060Z,91.00
2019-05-14T11:48:08.800Z,90.80
2019-05-14T11:50:36.928Z,90.20
2019-05-14T11:53:05.358Z,86.00
2019-05-14T11:55:33.799Z,85.00
2019-05-14T11:58:02.229Z,86.80
2019-05-14T12:00:30.916Z,85.00
2019-05-14T12:02:59.599Z,84.60
2019-05-14T12:05:30.375Z,84.00
2019-05-14T12:07:58.172Z,81.70
2019-05-14T12:10:29.134Z,81.90
2019-05-14T12:12:58.434Z,82.80
2019-05-14T12:15:26.912Z,84.50
2019-05-14T12:17:55.355Z,87.70
2019-05-14T12:20:23.793Z,84.60
2019-05-14T12:22:52.215Z,89.00
2019-05-14T12:25:20.650Z,91.10
2019-05-14T12:27:49.691Z,92.90
2019-05-14T12:30:19.913Z,94.10
2019-05-14T12:32:50.050Z,94.90
2019-05-14T12:35:19.797Z,95.20
2019-05-14T12:37:48.546Z,95.00
2019-05-14T12:40:19.392Z,95.20
2019-05-14T12:42:49.669Z,94.90
2019-05-14T12:45:19.119Z,94.50
2019-05-14T12:47:50.024Z,94.40
2019-05-14T12:50:18.525Z,94.30
2019-05-14T12:52:48.459Z,93.50
2019-05-14T12:55:19.429Z,93.40
2019-05-14T12:57:48.579Z,93.10
2019-05-14T13:00:17.729Z,93.40
2019-05-14T13:02:46.138Z,93.40
2019-05-14T13:05:34.019Z,93.50
2019-05-14T13:08:02.497Z,93.30
2019-05-14T13:10:30.928Z,93.80
2019-05-14T13:12:59.352Z,94.30
2019-05-14T13:15:28.624Z,94.10
2019-05-14T13:17:57.298Z,94.40
2019-05-14T13:20:25.731Z,95.10
2019-05-14T13:22:54.160Z,95.00
2019-05-14T13:25:22.598Z,95.50
2019-05-14T13:27:51.017Z,96.00
2019-05-14T13:30:19.820Z,95.90
2019-05-14T13:32:48.926Z,96.10
2019-05-14T13:35:19.710Z,96.40
2019-05-14T13:37:49.134Z,96.80
2019-05-14T13:40:21.332Z,96.90
2019-05-14T13:42:49.193Z,96.80
2019-05-14T13:45:19.026Z,96.50
2019-05-14T13:47:48.809Z,95.90
2019-05-14T13:50:19.746Z,95.90
2019-05-14T13:52:59.839Z,95.10
2019-05-14T13:55:19.400Z,94.90
2019-05-14T13:57:48.801Z,94.50
2019-05-14T14:00:19.998Z,94.60
2019-05-14T14:02:47.735Z,94.70
2019-05-14T14:05:19.910Z,94.70
2019-05-14T14:07:48.542Z,94.60
2019-05-14T14:10:17.251Z,93.30
2019-05-14T14:12:49.185Z,94.00
2019-05-14T14:15:16.135Z,94.50
2019-05-14T14:17:44.568Z,95.10
2019-05-14T14:20:13.235Z,95.30
2019-05-14T14:22:41.670Z,95.80
2019-05-14T14:25:10.168Z,95.60
2019-05-14T14:27:40.719Z,95.00
2019-05-14T14:30:09.995Z,95.10
2019-05-14T14:32:40.714Z,95.60
2019-05-14T14:35:09.037Z,95.20
2019-05-14T14:37:39.622Z,95.20
2019-05-14T14:40:10.214Z,95.40
2019-05-14T14:42:40.119Z,95.70
2019-05-14T14:45:10.080Z,94.90
2019-05-14T14:47:39.486Z,94.60
2019-05-14T14:50:29.371Z,95.00
2019-05-14T14:52:59.850Z,95.10
2019-05-14T14:55:30.596Z,94.80
2019-05-14T14:57:58.153Z,95.20
2019-05-14T15:00:29.133Z,95.50
2019-05-14T15:02:59.442Z,95.20
2019-05-14T15:05:29.575Z,94.00
2019-05-14T15:07:59.877Z,93.20
2019-05-14T15:10:28.432Z,93.20
2019-05-14T15:12:58.965Z,92.90
2019-05-14T15:15:27.224Z,92.20
2019-05-14T15:17:55.663Z,92.30
2019-05-14T15:20:24.088Z,92.30
2019-05-14T15:22:52.526Z,92.00
2019-05-14T15:25:20.951Z,91.50
2019-05-14T15:27:49.401Z,91.70
2019-05-14T15:30:18.134Z,92.20
2019-05-14T15:32:51.047Z,92.10
2019-05-14T15:35:18.895Z,92.10
2019-05-14T15:37:48.774Z,92.30
2019-05-14T15:40:22.134Z,92.30
2019-05-14T15:42:49.566Z,90.70
2019-05-14T15:45:18.006Z,90.00
2019-05-14T15:47:48.604Z,89.60
2019-05-14T15:50:19.727Z,86.80
2019-05-14T15:52:48.705Z,86.00
2019-05-14T15:55:18.319Z,83.60
2019-05-14T15:57:46.976Z,83.20
2019-05-14T16:00:15.732Z,81.70
2019-05-14T16:02:44.166Z,80.50
2019-05-14T16:05:12.667Z,81.00
2019-05-14T16:07:41.096Z,81.20
2019-05-14T16:10:10.859Z,80.20
2019-05-14T16:12:40.080Z,78.80
2019-05-14T16:15:09.446Z,77.90
2019-05-14T16:17:48.028Z,77.80
2019-05-14T16:20:09.299Z,78.50
2019-05-14T16:22:39.741Z,77.80
2019-05-14T16:25:10.429Z,78.10
2019-05-14T16:27:39.802Z,78.20
2019-05-14T16:30:10.069Z,76.40
2019-05-14T16:32:39.603Z,73.70
2019-05-14T16:35:09.102Z,72.80
2019-05-14T16:37:39.099Z,73.80
2019-05-14T16:40:09.295Z,73.80
2019-05-14T16:42:39.713Z,73.60
2019-05-14T16:45:08.823Z,73.70
2019-05-14T16:47:39.823Z,72.90
2019-05-14T16:50:09.027Z,72.90
2019-05-14T16:52:41.720Z,70.60
2019-05-14T16:55:22.581Z,69.50
2019-05-14T16:57:39.220Z,69.10
2019-05-14T17:00:09.629Z,69.70
2019-05-14T17:02:38.470Z,68.60
2019-05-14T17:05:09.154Z,67.40
2019-05-14T17:07:38.493Z,69.80
2019-05-14T17:10:08.487Z,67.50
2019-05-14T17:12:49.416Z,65.70
2019-05-14T17:15:09.593Z,66.10
2019-05-14T17:17:38.456Z,66.30
2019-05-14T17:20:08.736Z,64.70
2019-05-14T17:22:39.622Z,65.90
2019-05-14T17:25:09.525Z,66.60
2019-05-14T17:27:39.502Z,66.40
2019-05-14T17:30:08.966Z,64.00
2019-05-14T17:32:39.162Z,64.40
2019-05-14T17:35:08.274Z,66.30
2019-05-14T17:37:39.178Z,66.10
2019-05-14T17:40:09.465Z,66.30
2019-05-14T17:42:39.418Z,66.10
2019-05-14T17:45:08.488Z,67.00
2019-05-14T17:47:38.859Z,66.70
2019-05-14T17:50:07.690Z,66.00
2019-05-14T17:52:41.542Z,65.50
2019-05-14T17:55:11.594Z,65.60
2019-05-14T17:57:44.151Z,66.00
2019-05-14T18:00:09.469Z,65.80
2019-05-14T18:02:38.094Z,66.90
2019-05-14T18:05:09.521Z,67.10
2019-05-14T18:07:37.151Z,66.80
2019-05-14T18:10:08.869Z,67.50
2019-05-14T18:12:39.640Z,68.20
2019-05-14T18:15:08.702Z,68.50
2019-05-14T18:17:39.401Z,68.00
2019-05-14T18:20:08.585Z,68.30
2019-05-14T18:22:42.068Z,69.50
2019-05-14T18:25:07.626Z,70.80
2019-05-14T18:27:38.801Z,68.50
2019-05-14T18:30:09.296Z,69.00
2019-05-14T18:32:37.453Z,68.30
2019-05-14T18:35:06.354Z,68.80
2019-05-14T18:37:34.847Z,68.50
2019-05-14T18:40:04.775Z,68.50
2019-05-14T18:42:33.215Z,68.90
2019-05-14T18:45:01.657Z,69.30
2019-05-14T18:47:30.090Z,69.90
2019-05-14T18:49:59.512Z,70.70
2019-05-14T18:52:29.689Z,71.50
2019-05-14T18:54:59.007Z,71.00
2019-05-14T18:57:28.661Z,71.50
2019-05-14T18:59:57.381Z,76.30
2019-05-14T19:02:29.108Z,77.00
2019-05-14T19:04:57.940Z,76.10
2019-05-14T19:07:28.721Z,75.80
2019-05-14T19:09:58.693Z,74.70
2019-05-14T19:12:28.972Z,74.30
2019-05-14T19:14:58.936Z,73.60
2019-05-14T19:17:28.400Z,72.50
2019-05-14T19:19:58.923Z,72.60
2019-05-14T19:22:28.763Z,72.40
2019-05-14T19:24:58.647Z,73.20
2019-05-14T19:27:28.591Z,73.50
2019-05-14T19:29:59.200Z,73.80
2019-05-14T19:32:28.305Z,74.20
2019-05-14T19:34:56.865Z,74.20
2019-05-14T19:37:25.319Z,74.80
2019-05-14T19:39:55.308Z,75.10
2019-05-14T19:42:23.776Z,75.50
2019-05-14T19:44:52.275Z,75.60
2019-05-14T19:47:20.707Z,75.70
2019-05-14T19:49:49.278Z,76.10
2019-05-14T19:52:17.789Z,76.50
2019-05-14T19:54:48.707Z,77.30
2019-05-14T19:57:18.707Z,77.80
2019-05-14T19:59:49.175Z,78.10
2019-05-14T20:02:18.395Z,78.70
2019-05-14T20:04:47.079Z,78.40
2019-05-14T20:07:17.928Z,78.40
2019-05-14T20:09:48.132Z,78.90
2019-05-14T20:12:18.147Z,78.70
2019-05-14T20:14:48.826Z,79.10
2019-05-14T20:17:19.194Z,78.90
2019-05-14T20:19:49.258Z,79.20
2019-05-14T20:22:19.083Z,79.90
2019-05-14T20:24:48.409Z,80.20
2019-05-14T20:27:17.066Z,80.50
2019-05-14T20:29:45.573Z,81.00
2019-05-14T20:32:14.067Z,81.00
2019-05-14T20:34:42.535Z,80.80
2019-05-14T20:37:11.038Z,81.20
2019-05-14T20:39:42.116Z,82.10
2019-05-14T20:42:10.715Z,81.00
2019-05-14T20:44:39.414Z,81.70
2019-05-14T20:47:09.149Z,81.60
2019-05-14T20:49:38.217Z,82.40
2019-05-14T20:52:08.636Z,81.70
2019-05-14T20:54:36.854Z,82.00
2019-05-14T20:57:19.676Z,82.40
2019-05-14T20:59:35.709Z,82.80
2019-05-14T21:02:04.197Z,82.40
2019-05-14T21:04:32.645Z,81.40
2019-05-14T21:07:01.067Z,81.40
2019-05-14T21:09:29.517Z,81.80
2019-05-14T21:11:57.929Z,82.60
2019-05-14T21:14:26.384Z,83.10
2019-05-14T21:16:54.809Z,82.90
2019-05-14T21:19:23.245Z,83.10
2019-05-14T21:21:51.925Z,83.50
2019-05-14T21:24:21.924Z,83.50
2019-05-14T21:26:50.512Z,83.50
2019-05-14T21:29:19.013Z,88.60
2019-05-14T21:31:47.449Z,86.90
2019-05-14T21:34:15.880Z,85.70
2019-05-14T21:36:45.282Z,84.40
2019-05-14T21:39:13.797Z,84.10
2019-05-14T21:41:42.218Z,84.30
2019-05-14T21:44:10.663Z,84.50
2019-05-14T21:46:39.758Z,84.70
2019-05-14T21:49:11.085Z,85.10
2019-05-14T21:51:39.305Z,85.40
2019-05-14T21:54:09.514Z,85.00
2019-05-14T21:56:38.808Z,85.00
2019-05-14T21:59:09.563Z,85.10
2019-05-14T22:01:43.408Z,84.80
2019-05-14T22:04:11.880Z,87.50
2019-05-14T22:06:41.233Z,87.20
2019-05-14T22:09:10.050Z,85.80
2019-05-14T22:11:39.325Z,86.70
2019-05-14T22:14:08.092Z,86.10
2019-05-14T22:16:38.092Z,85.80
2019-05-14T22:19:08.482Z,86.30
2019-05-14T22:21:38.590Z,86.40
2019-05-14T22:24:07.360Z,86.40
2019-05-14T22:26:35.778Z,86.50
2019-05-14T22:29:04.238Z,86.40
2019-05-14T22:31:51.984Z,87.30
2019-05-14T22:34:20.437Z,87.60
2019-05-14T22:36:48.859Z,87.90
2019-05-14T22:39:19.776Z,88.00
2019-05-14T22:41:47.431Z,88.20
2019-05-14T22:44:15.862Z,88.60
2019-05-14T22:46:44.328Z,88.70
2019-05-14T22:49:12.815Z,89.50
2019-05-14T22:51:41.261Z,90.30
2019-05-14T22:54:09.711Z,90.50
2019-05-14T22:56:38.930Z,90.10
2019-05-14T22:59:07.646Z,89.80
2019-05-14T23:01:38.462Z,89.80
2019-05-14T23:04:08.781Z,89.60
2019-05-14T23:06:55.174Z,89.40
2019-05-14T23:09:23.621Z,89.70
2019-05-14T23:11:52.072Z,89.80
2019-05-14T23:14:20.500Z,89.50
2019-05-14T23:16:49.232Z,89.30
2019-05-14T23:19:18.749Z,88.80
2019-05-14T23:21:48.412Z,88.20
2019-05-14T23:24:18.925Z,88.10
2019-05-14T23:26:49.283Z,88.50
2019-05-14T23:29:17.920Z,88.20
2019-05-14T23:31:48.667Z,88.40
2019-05-14T23:34:18.876Z,88.30
2019-05-14T23:36:48.315Z,87.80
2019-05-14T23:39:16.999Z,87.50
2019-05-14T23:41:45.896Z,87.30
2019-05-14T23:44:14.321Z,87.60
2019-05-14T23:46:42.774Z,87.60
2019-05-14T23:49:11.185Z,87.40
2019-05-14T23:51:39.612Z,87.60
2019-05-14T23:54:08.788Z,87.90
2019-05-14T23:56:38.361Z,87.50
2019-05-14T23:59:09.278Z,88.10
